sensor_id;sensor_type;location;lat;lon;timestamp;pressure;altitude;pressure_sealevel;temperature;humidity
48926;BME280;39838;59.938;30.642;2024-03-23T00:52:59;98400.88;;;2.65;96.23
48926;BME280;39838;59.938;30.642;2024-03-23T00:55:26;98404.28;;;2.67;95.98
48926;BME280;39838;59.938;30.642;2024-03-23T00:57:53;98402.56;;;2.63;95.85
48926;BME280;39838;59.938;30.642;2024-03-23T01:00:19;98400.91;;;2.59;95.86
48926;BME280;39838;59.938;30.642;2024-03-23T01:02:46;98394.06;;;2.54;95.94
48926;BME280;39838;59.938;30.642;2024-03-23T01:05:13;98382.94;;;2.50;96.12
48926;BME280;39838;59.938;30.642;2024-03-23T01:07:40;98352.25;;;2.32;96.09
48926;BME280;39838;59.938;30.642;2024-03-23T01:10:08;98371.84;;;2.46;96.16
48926;BME280;39838;59.938;30.642;2024-03-23T01:12:35;98370.16;;;2.47;96.21
48926;BME280;39838;59.938;30.642;2024-03-23T01:15:01;98365.88;;;2.47;96.27
48926;BME280;39838;59.938;30.642;2024-03-23T01:17:29;98362.44;;;2.50;96.42
48926;BME280;39838;59.938;30.642;2024-03-23T01:19:55;98349.63;;;2.53;96.15
48926;BME280;39838;59.938;30.642;2024-03-23T01:22:22;98342.78;;;2.51;96.23
48926;BME280;39838;59.938;30.642;2024-03-23T01:24:48;98347.06;;;2.50;96.19
48926;BME280;39838;59.938;30.642;2024-03-23T01:27:17;98346.22;;;2.51;96.52
48926;BME280;39838;59.938;30.642;2024-03-23T01:29:43;98329.13;;;2.50;96.55
48926;BME280;39838;59.938;30.642;2024-03-23T01:32:11;98328.28;;;2.46;96.75
48926;BME280;39838;59.938;30.642;2024-03-23T01:34:37;98321.47;;;2.45;97.07
48926;BME280;39838;59.938;30.642;2024-03-23T01:37:04;98318.03;;;2.45;97.19
48926;BME280;39838;59.938;30.642;2024-03-23T01:39:30;98312.03;;;2.49;97.40
48926;BME280;39838;59.938;30.642;2024-03-23T01:41:58;98311.16;;;2.55;96.95
48926;BME280;39838;59.938;30.642;2024-03-23T01:44:26;98298.34;;;2.56;96.75
48926;BME280;39838;59.938;30.642;2024-03-23T01:46:53;98304.34;;;2.58;96.59
48926;BME280;39838;59.938;30.642;2024-03-23T01:49:20;98293.22;;;2.55;96.74
48926;BME280;39838;59.938;30.642;2024-03-23T01:51:46;98283.81;;;2.55;96.72
48926;BME280;39838;59.938;30.642;2024-03-23T01:54:14;98288.09;;;2.58;96.63
48926;BME280;39838;59.938;30.642;2024-03-23T01:56:40;98271.00;;;2.58;96.91
48926;BME280;39838;59.938;30.642;2024-03-23T01:59:07;98275.25;;;2.62;97.15
48926;BME280;39838;59.938;30.642;2024-03-23T02:01:36;98276.13;;;2.64;97.08
48926;BME280;39838;59.938;30.642;2024-03-23T02:04:03;98266.69;;;2.68;96.77
48926;BME280;39838;59.938;30.642;2024-03-23T02:06:29;98263.28;;;2.67;97.54
48926;BME280;39838;59.938;30.642;2024-03-23T02:08:57;98254.72;;;2.68;97.43
48926;BME280;39838;59.938;30.642;2024-03-23T02:11:23;98250.44;;;2.70;97.22
48926;BME280;39838;59.938;30.642;2024-03-23T02:13:50;98248.72;;;2.72;97.37
48926;BME280;39838;59.938;30.642;2024-03-23T02:16:17;98245.28;;;2.77;97.08
48926;BME280;39838;59.938;30.642;2024-03-23T02:18:46;98243.56;;;2.76;97.52
48926;BME280;39838;59.938;30.642;2024-03-23T02:21:12;98238.44;;;2.79;97.61
48926;BME280;39838;59.938;30.642;2024-03-23T02:23:41;98239.28;;;2.78;97.39
48926;BME280;39838;59.938;30.642;2024-03-23T02:26:07;98236.69;;;2.82;97.56
48926;BME280;39838;59.938;30.642;2024-03-23T02:28:34;98231.56;;;2.82;97.31
48926;BME280;39838;59.938;30.642;2024-03-23T02:31:00;98230.72;;;2.83;97.47
48926;BME280;39838;59.938;30.642;2024-03-23T02:33:27;98232.44;;;2.86;97.43
48926;BME280;39838;59.938;30.642;2024-03-23T02:35:56;98231.56;;;2.87;97.38
48926;BME280;39838;59.938;30.642;2024-03-23T02:38:23;98220.41;;;2.89;97.25
48926;BME280;39838;59.938;30.642;2024-03-23T02:40:51;98216.13;;;2.93;97.36
48926;BME280;39838;59.938;30.642;2024-03-23T02:43:18;98215.28;;;2.94;97.70
48926;BME280;39838;59.938;30.642;2024-03-23T02:45:44;98205.81;;;3.00;97.36
48926;BME280;39838;59.938;30.642;2024-03-23T02:48:11;98205.81;;;3.02;97.27
48926;BME280;39838;59.938;30.642;2024-03-23T02:50:37;98209.25;;;3.01;97.34
48926;BME280;39838;59.938;30.642;2024-03-23T02:53:05;98215.25;;;3.00;97.76
48926;BME280;39838;59.938;30.642;2024-03-23T02:55:31;98208.38;;;3.02;98.09
48926;BME280;39838;59.938;30.642;2024-03-23T02:57:59;98204.09;;;3.03;97.82
48926;BME280;39838;59.938;30.642;2024-03-23T03:00:28;98202.38;;;3.03;98.06
48926;BME280;39838;59.938;30.642;2024-03-23T03:02:55;98204.94;;;3.05;97.74
48926;BME280;39838;59.938;30.642;2024-03-23T03:05:21;98195.53;;;3.05;97.88
48926;BME280;39838;59.938;30.642;2024-03-23T03:07:48;98193.81;;;3.07;97.99
48926;BME280;39838;59.938;30.642;2024-03-23T03:10:14;98191.22;;;3.09;98.13
48926;BME280;39838;59.938;30.642;2024-03-23T03:12:43;98187.78;;;3.14;98.02
48926;BME280;39838;59.938;30.642;2024-03-23T03:15:11;98192.00;;;3.21;97.58
48926;BME280;39838;59.938;30.642;2024-03-23T03:17:38;98185.13;;;3.23;97.58
48926;BME280;39838;59.938;30.642;2024-03-23T03:20:05;98192.84;;;3.22;97.62
48926;BME280;39838;59.938;30.642;2024-03-23T03:22:33;98182.59;;;3.20;97.66
48926;BME280;39838;59.938;30.642;2024-03-23T03:25:00;98183.44;;;3.21;97.74
48926;BME280;39838;59.938;30.642;2024-03-23T03:27:30;98183.44;;;3.21;98.02
48926;BME280;39838;59.938;30.642;2024-03-23T03:29:58;98179.16;;;3.21;97.47
48926;BME280;39838;59.938;30.642;2024-03-23T03:32:28;98172.34;;;3.20;97.48
48926;BME280;39838;59.938;30.642;2024-03-23T03:34:56;98169.78;;;3.17;98.32
48926;BME280;39838;59.938;30.642;2024-03-23T03:37:22;98172.34;;;3.17;97.76
48926;BME280;39838;59.938;30.642;2024-03-23T03:39:49;98166.34;;;3.18;98.33
48926;BME280;39838;59.938;30.642;2024-03-23T03:42:15;98167.22;;;3.20;98.26
48926;BME280;39838;59.938;30.642;2024-03-23T03:44:43;98163.78;;;3.17;98.24
48926;BME280;39838;59.938;30.642;2024-03-23T03:47:09;98158.69;;;3.14;98.48
48926;BME280;39838;59.938;30.642;2024-03-23T03:49:37;98160.44;;;3.12;98.73
48926;BME280;39838;59.938;30.642;2024-03-23T03:52:04;98157.00;;;3.10;98.53
48926;BME280;39838;59.938;30.642;2024-03-23T03:54:32;98155.28;;;3.10;99.07
48926;BME280;39838;59.938;30.642;2024-03-23T03:56:58;98151.91;;;3.07;99.32
48926;BME280;39838;59.938;30.642;2024-03-23T03:59:26;98142.50;;;3.07;99.62
48926;BME280;39838;59.938;30.642;2024-03-23T04:01:52;98151.91;;;3.08;99.46
48926;BME280;39838;59.938;30.642;2024-03-23T04:04:19;98148.47;;;3.08;99.51
48926;BME280;39838;59.938;30.642;2024-03-23T04:06:47;98141.63;;;3.08;100.00
48926;BME280;39838;59.938;30.642;2024-03-23T04:09:14;98140.75;;;3.12;100.00
48926;BME280;39838;59.938;30.642;2024-03-23T04:11:41;98144.13;;;3.17;100.00
48926;BME280;39838;59.938;30.642;2024-03-23T04:14:08;98143.25;;;3.18;100.00
48926;BME280;39838;59.938;30.642;2024-03-23T04:16:35;98137.25;;;3.22;100.00
48926;BME280;39838;59.938;30.642;2024-03-23T04:19:02;98141.50;;;3.23;100.00
48926;BME280;39838;59.938;30.642;2024-03-23T04:21:29;98138.94;;;3.23;99.77
48926;BME280;39838;59.938;30.642;2024-03-23T04:23:58;98138.13;;;3.17;99.99
48926;BME280;39838;59.938;30.642;2024-03-23T04:26:24;98148.34;;;3.23;100.00
48926;BME280;39838;59.938;30.642;2024-03-23T04:28:51;98145.78;;;3.26;100.00
48926;BME280;39838;59.938;30.642;2024-03-23T04:31:18;98149.19;;;3.26;100.00
48926;BME280;39838;59.938;30.642;2024-03-23T04:33:45;98148.34;;;3.26;100.00
48926;BME280;39838;59.938;30.642;2024-03-23T04:36:11;98151.75;;;3.26;100.00
48926;BME280;39838;59.938;30.642;2024-03-23T04:38:38;98150.84;;;3.31;100.00
48926;BME280;39838;59.938;30.642;2024-03-23T04:41:08;98152.56;;;3.32;100.00
48926;BME280;39838;59.938;30.642;2024-03-23T04:43:36;98148.22;;;3.38;100.00
48926;BME280;39838;59.938;30.642;2024-03-23T04:46:03;98151.59;;;3.45;100.00
48926;BME280;39838;59.938;30.642;2024-03-23T04:48:30;98154.13;;;3.49;100.00
48926;BME280;39838;59.938;30.642;2024-03-23T04:50:58;98159.28;;;3.48;99.95
48926;BME280;39838;59.938;30.642;2024-03-23T04:53:25;98155.03;;;3.44;100.00
48926;BME280;39838;59.938;30.642;2024-03-23T04:55:54;98153.31;;;3.43;100.00
48926;BME280;39838;59.938;30.642;2024-03-23T04:58:23;98177.25;;;3.45;100.00
48926;BME280;39838;59.938;30.642;2024-03-23T05:00:53;98151.59;;;3.45;100.00
48926;BME280;39838;59.938;30.642;2024-03-23T05:03:21;98150.00;;;3.32;100.00
48926;BME280;39838;59.938;30.642;2024-03-23T05:05:47;98177.34;;;3.36;100.00
48926;BME280;39838;59.938;30.642;2024-03-23T05:08:14;98168.84;;;3.32;99.80
48926;BME280;39838;59.938;30.642;2024-03-23T05:10:41;98173.94;;;3.31;100.00
48926;BME280;39838;59.938;30.642;2024-03-23T05:13:09;98165.41;;;3.30;100.00
48926;BME280;39838;59.938;30.642;2024-03-23T05:15:37;98169.69;;;3.29;100.00
48926;BME280;39838;59.938;30.642;2024-03-23T05:18:05;98166.31;;;3.26;99.99
48926;BME280;39838;59.938;30.642;2024-03-23T05:20:32;98170.56;;;3.27;100.00
48926;BME280;39838;59.938;30.642;2024-03-23T05:22:58;98165.44;;;3.28;100.00
48926;BME280;39838;59.938;30.642;2024-03-23T05:25:26;98169.69;;;3.29;100.00
48926;BME280;39838;59.938;30.642;2024-03-23T05:27:52;98158.53;;;3.34;100.00
48926;BME280;39838;59.938;30.642;2024-03-23T05:30:19;98179.94;;;3.34;100.00
48926;BME280;39838;59.938;30.642;2024-03-23T05:32:46;98175.66;;;3.33;100.00
48926;BME280;39838;59.938;30.642;2024-03-23T05:35:14;98176.47;;;3.37;100.00
48926;BME280;39838;59.938;30.642;2024-03-23T05:37:40;98167.91;;;3.41;99.78
48926;BME280;39838;59.938;30.642;2024-03-23T05:40:08;98167.03;;;3.42;100.00
48926;BME280;39838;59.938;30.642;2024-03-23T05:42:35;98170.44;;;3.42;99.76
48926;BME280;39838;59.938;30.642;2024-03-23T05:45:03;98169.56;;;3.43;99.94
48926;BME280;39838;59.938;30.642;2024-03-23T05:47:32;98174.69;;;3.45;100.00
48926;BME280;39838;59.938;30.642;2024-03-23T05:50:00;98159.28;;;3.45;99.73
48926;BME280;39838;59.938;30.642;2024-03-23T05:52:30;98154.09;;;3.51;99.72
48926;BME280;39838;59.938;30.642;2024-03-23T05:54:58;98163.47;;;3.56;99.69
48926;BME280;39838;59.938;30.642;2024-03-23T05:57:24;98160.88;;;3.61;99.26
48926;BME280;39838;59.938;30.642;2024-03-23T05:59:52;98160.75;;;3.72;99.41
48926;BME280;39838;59.938;30.642;2024-03-23T06:02:18;98164.97;;;3.80;98.91
48926;BME280;39838;59.938;30.642;2024-03-23T06:04:45;98157.22;;;3.82;99.00
48926;BME280;39838;59.938;30.642;2024-03-23T06:07:13;98158.13;;;3.79;98.47
48926;BME280;39838;59.938;30.642;2024-03-23T06:09:40;98158.06;;;3.84;98.17
48926;BME280;39838;59.938;30.642;2024-03-23T06:12:07;98158.91;;;3.88;97.84
48926;BME280;39838;59.938;30.642;2024-03-23T06:14:34;98165.75;;;3.87;97.35
48926;BME280;39838;59.938;30.642;2024-03-23T06:17:00;98163.13;;;3.92;97.53
48926;BME280;39838;59.938;30.642;2024-03-23T06:19:28;98163.16;;;3.89;96.89
48926;BME280;39838;59.938;30.642;2024-03-23T06:21:54;98154.59;;;3.90;96.92
48926;BME280;39838;59.938;30.642;2024-03-23T06:24:23;98160.53;;;3.95;96.28
48926;BME280;39838;59.938;30.642;2024-03-23T06:26:50;98177.63;;;3.96;96.69
48926;BME280;39838;59.938;30.642;2024-03-23T06:29:18;98163.91;;;4.00;96.28
48926;BME280;39838;59.938;30.642;2024-03-23T06:31:44;98175.03;;;4.00;95.38
48926;BME280;39838;59.938;30.642;2024-03-23T06:34:11;98180.94;;;4.05;95.50
48926;BME280;39838;59.938;30.642;2024-03-23T06:36:37;98178.31;;;4.15;95.36
48926;BME280;39838;59.938;30.642;2024-03-23T06:39:05;98181.66;;;4.18;95.29
48926;BME280;39838;59.938;30.642;2024-03-23T06:41:33;98172.25;;;4.20;94.11
48926;BME280;39838;59.938;30.642;2024-03-23T06:44:01;98182.53;;;4.20;93.95
48926;BME280;39838;59.938;30.642;2024-03-23T06:46:27;98179.94;;;4.20;94.68
48926;BME280;39838;59.938;30.642;2024-03-23T06:48:54;98187.63;;;4.23;93.98
48926;BME280;39838;59.938;30.642;2024-03-23T06:51:20;98172.19;;;4.23;94.29
48926;BME280;39838;59.938;30.642;2024-03-23T06:53:49;98177.22;;;4.32;93.61
48926;BME280;39838;59.938;30.642;2024-03-23T06:56:15;98182.28;;;4.38;93.52
48926;BME280;39838;59.938;30.642;2024-03-23T06:58:44;98190.84;;;4.42;93.60
48926;BME280;39838;59.938;30.642;2024-03-23T07:01:10;98178.78;;;4.46;93.35
48926;BME280;39838;59.938;30.642;2024-03-23T07:03:37;98178.78;;;4.47;92.75
48926;BME280;39838;59.938;30.642;2024-03-23T07:06:03;98183.03;;;4.50;92.85
48926;BME280;39838;59.938;30.642;2024-03-23T07:08:31;98185.59;;;4.50;92.16
48926;BME280;39838;59.938;30.642;2024-03-23T07:10:57;98189.06;;;4.46;92.10
48926;BME280;39838;59.938;30.642;2024-03-23T07:13:24;98176.25;;;4.43;91.98
48926;BME280;39838;59.938;30.642;2024-03-23T07:15:55;98183.19;;;4.36;92.19
48926;BME280;39838;59.938;30.642;2024-03-23T07:18:24;98174.59;;;4.37;92.25
48926;BME280;39838;59.938;30.642;2024-03-23T07:20:53;98186.59;;;4.38;92.44
48926;BME280;39838;59.938;30.642;2024-03-23T07:23:22;98188.31;;;4.36;92.07
48926;BME280;39838;59.938;30.642;2024-03-23T07:25:56;98181.53;;;4.30;92.10
48926;BME280;39838;59.938;30.642;2024-03-23T07:28:24;98185.00;;;4.26;92.77
48926;BME280;39838;59.938;30.642;2024-03-23T07:31:02;98182.41;;;4.29;92.79
48926;BME280;39838;59.938;30.642;2024-03-23T07:33:30;98185.06;;;4.22;93.10
48926;BME280;39838;59.938;30.642;2024-03-23T07:35:56;98195.41;;;4.17;93.26
48926;BME280;39838;59.938;30.642;2024-03-23T07:38:26;98194.56;;;4.15;93.84
48926;BME280;39838;59.938;30.642;2024-03-23T07:40:55;98209.16;;;4.11;94.14
48926;BME280;39838;59.938;30.642;2024-03-23T07:43:29;98219.50;;;4.04;94.36
48926;BME280;39838;59.938;30.642;2024-03-23T07:45:55;98205.78;;;4.05;94.51
48926;BME280;39838;59.938;30.642;2024-03-23T07:48:23;98230.72;;;4.00;94.63
48926;BME280;39838;59.938;30.642;2024-03-23T07:51:00;98217.00;;;3.98;94.42
48926;BME280;39838;59.938;30.642;2024-03-23T07:53:28;98225.59;;;3.97;95.37
48926;BME280;39838;59.938;30.642;2024-03-23T07:55:55;98223.84;;;3.99;95.36
48926;BME280;39838;59.938;30.642;2024-03-23T07:58:23;98199.16;;;3.84;95.62
48926;BME280;39838;59.938;30.642;2024-03-23T08:00:49;98212.78;;;3.92;96.06
48926;BME280;39838;59.938;30.642;2024-03-23T08:03:16;98223.88;;;3.97;95.25
48926;BME280;39838;59.938;30.642;2024-03-23T08:05:44;98223.00;;;4.00;95.45
48926;BME280;39838;59.938;30.642;2024-03-23T08:08:11;98219.56;;;3.99;95.16
48926;BME280;39838;59.938;30.642;2024-03-23T08:10:38;98227.28;;;4.01;95.77
48926;BME280;39838;59.938;30.642;2024-03-23T08:13:13;98229.00;;;4.00;95.84
48926;BME280;39838;59.938;30.642;2024-03-23T08:15:39;98235.81;;;4.01;95.73
48926;BME280;39838;59.938;30.642;2024-03-23T08:18:07;98241.78;;;4.05;95.68
48926;BME280;39838;59.938;30.642;2024-03-23T08:20:33;98264.94;;;3.99;95.26
48926;BME280;39838;59.938;30.642;2024-03-23T08:23:02;98261.66;;;3.88;95.26
48926;BME280;39838;59.938;30.642;2024-03-23T08:25:30;98257.47;;;3.74;96.05
48926;BME280;39838;59.938;30.642;2024-03-23T08:27:58;98255.91;;;3.60;95.73
48926;BME280;39838;59.938;30.642;2024-03-23T08:30:24;98245.66;;;3.52;96.44
48926;BME280;39838;59.938;30.642;2024-03-23T08:32:51;98261.97;;;3.48;96.37
48926;BME280;39838;59.938;30.642;2024-03-23T08:35:18;98265.41;;;3.47;97.11
48926;BME280;39838;59.938;30.642;2024-03-23T08:37:45;98264.59;;;3.40;97.10
48926;BME280;39838;59.938;30.642;2024-03-23T08:40:14;98269.78;;;3.29;97.09
48926;BME280;39838;59.938;30.642;2024-03-23T08:42:41;98268.94;;;3.27;96.94
48926;BME280;39838;59.938;30.642;2024-03-23T08:45:08;98274.91;;;3.29;97.14
48926;BME280;39838;59.938;30.642;2024-03-23T08:47:35;98261.28;;;3.18;96.99
48926;BME280;39838;59.938;30.642;2024-03-23T08:50:01;98286.16;;;3.09;96.47
48926;BME280;39838;59.938;30.642;2024-03-23T08:52:30;98286.19;;;3.01;96.47
48926;BME280;39838;59.938;30.642;2024-03-23T08:54:56;98267.41;;;2.96;96.71
48926;BME280;39838;59.938;30.642;2024-03-23T08:57:25;98274.28;;;2.94;96.97
48926;BME280;39838;59.938;30.642;2024-03-23T08:59:51;98287.09;;;2.89;96.73
48926;BME280;39838;59.938;30.642;2024-03-23T09:02:18;98288.00;;;2.81;97.19
48926;BME280;39838;59.938;30.642;2024-03-23T09:04:44;98281.19;;;2.80;96.88
48926;BME280;39838;59.938;30.642;2024-03-23T09:07:12;98282.84;;;2.84;97.31
48926;BME280;39838;59.938;30.642;2024-03-23T09:09:40;98270.84;;;2.93;97.43
48926;BME280;39838;59.938;30.642;2024-03-23T09:12:07;98287.03;;;3.03;97.15
48926;BME280;39838;59.938;30.642;2024-03-23T09:14:35;98290.47;;;3.00;96.92
48926;BME280;39838;59.938;30.642;2024-03-23T09:17:02;98304.13;;;3.04;96.22
48926;BME280;39838;59.938;30.642;2024-03-23T09:19:29;98292.16;;;3.03;96.34
48926;BME280;39838;59.938;30.642;2024-03-23T09:21:56;98288.75;;;3.03;96.58
48926;BME280;39838;59.938;30.642;2024-03-23T09:24:22;98300.69;;;3.08;96.23
48926;BME280;39838;59.938;30.642;2024-03-23T09:26:51;98306.69;;;3.07;95.98
48926;BME280;39838;59.938;30.642;2024-03-23T09:29:18;98307.53;;;3.12;96.09
48926;BME280;39838;59.938;30.642;2024-03-23T09:31:47;98314.38;;;3.13;96.05
48926;BME280;39838;59.938;30.642;2024-03-23T09:34:14;98315.19;;;3.18;96.29
48926;BME280;39838;59.938;30.642;2024-03-23T09:36:41;98300.66;;;3.17;96.48
48926;BME280;39838;59.938;30.642;2024-03-23T09:39:07;98315.19;;;3.17;95.23
48926;BME280;39838;59.938;30.642;2024-03-23T09:41:37;98316.00;;;3.23;95.11
48926;BME280;39838;59.938;30.642;2024-03-23T09:44:03;98326.31;;;3.20;95.68
48926;BME280;39838;59.938;30.642;2024-03-23T09:46:32;98354.50;;;3.28;94.70
48926;BME280;39838;59.938;30.642;2024-03-23T09:49:01;98331.47;;;3.10;94.29
48926;BME280;39838;59.938;30.642;2024-03-23T09:51:30;98329.84;;;2.95;94.74
48926;BME280;39838;59.938;30.642;2024-03-23T09:53:57;98340.09;;;2.93;95.08
48926;BME280;39838;59.938;30.642;2024-03-23T09:56:24;98349.50;;;2.90;95.12
48926;BME280;39838;59.938;30.642;2024-03-23T09:58:50;98352.09;;;2.82;95.09
48926;BME280;39838;59.938;30.642;2024-03-23T10:01:17;98341.00;;;2.82;95.30
48926;BME280;39838;59.938;30.642;2024-03-23T10:03:45;98349.56;;;2.81;95.78
48926;BME280;39838;59.938;30.642;2024-03-23T10:06:14;98355.50;;;2.84;95.75
48926;BME280;39838;59.938;30.642;2024-03-23T10:08:40;98351.25;;;2.85;95.36
48926;BME280;39838;59.938;30.642;2024-03-23T10:11:16;98363.22;;;2.83;95.41
48926;BME280;39838;59.938;30.642;2024-03-23T10:13:44;98358.13;;;2.80;95.62
48926;BME280;39838;59.938;30.642;2024-03-23T10:16:12;98367.50;;;2.82;95.86
48926;BME280;39838;59.938;30.642;2024-03-23T10:18:46;98370.06;;;2.81;95.63
48926;BME280;39838;59.938;30.642;2024-03-23T10:21:16;98375.19;;;2.82;95.95
48926;BME280;39838;59.938;30.642;2024-03-23T10:23:43;98363.25;;;2.70;95.76
48926;BME280;39838;59.938;30.642;2024-03-23T10:26:16;98385.44;;;2.78;95.76
48926;BME280;39838;59.938;30.642;2024-03-23T10:28:56;98351.28;;;2.72;95.40
48926;BME280;39838;59.938;30.642;2024-03-23T10:31:28;98376.94;;;2.68;95.45
48926;BME280;39838;59.938;30.642;2024-03-23T10:33:54;98373.53;;;2.66;95.11
48926;BME280;39838;59.938;30.642;2024-03-23T10:36:24;98370.97;;;2.61;95.19
48926;BME280;39838;59.938;30.642;2024-03-23T10:38:52;98383.78;;;2.66;95.48
48926;BME280;39838;59.938;30.642;2024-03-23T10:41:20;98373.53;;;2.66;95.00
48926;BME280;39838;59.938;30.642;2024-03-23T10:43:49;98382.03;;;2.76;94.82
48926;BME280;39838;59.938;30.642;2024-03-23T10:46:16;98397.44;;;2.72;94.69
48926;BME280;39838;59.938;30.642;2024-03-23T10:48:44;98394.88;;;2.72;94.39
48926;BME280;39838;59.938;30.642;2024-03-23T10:51:11;98406.84;;;2.73;94.59
48926;BME280;39838;59.938;30.642;2024-03-23T10:53:39;98413.69;;;2.61;94.41
48926;BME280;39838;59.938;30.642;2024-03-23T10:56:06;98400.88;;;2.56;94.25
48926;BME280;39838;59.938;30.642;2024-03-23T10:58:38;98414.56;;;2.61;94.66
48926;BME280;39838;59.938;30.642;2024-03-23T11:01:05;98401.75;;;2.66;94.16
48926;BME280;39838;59.938;30.642;2024-03-23T11:03:36;98424.81;;;2.67;94.06
48926;BME280;39838;59.938;30.642;2024-03-23T11:06:03;98423.94;;;2.67;94.05
48926;BME280;39838;59.938;30.642;2024-03-23T11:08:33;98413.69;;;2.62;93.88
48926;BME280;39838;59.938;30.642;2024-03-23T11:11:14;98412.84;;;2.54;93.58
48926;BME280;39838;59.938;30.642;2024-03-23T11:13:41;98434.22;;;2.56;93.90
48926;BME280;39838;59.938;30.642;2024-03-23T11:16:14;98412.00;;;2.55;93.92
48926;BME280;39838;59.938;30.642;2024-03-23T11:18:42;98422.28;;;2.52;93.76
48926;BME280;39838;59.938;30.642;2024-03-23T11:21:09;98428.25;;;2.51;93.85
48926;BME280;39838;59.938;30.642;2024-03-23T11:23:37;98429.09;;;2.56;93.94
48926;BME280;39838;59.938;30.642;2024-03-23T11:26:07;98421.38;;;2.62;93.84
48926;BME280;39838;59.938;30.642;2024-03-23T11:28:36;98419.66;;;2.70;93.55
48926;BME280;39838;59.938;30.642;2024-03-23T11:31:09;98425.63;;;2.77;93.61
48926;BME280;39838;59.938;30.642;2024-03-23T11:33:37;98427.34;;;2.83;93.30
48926;BME280;39838;59.938;30.642;2024-03-23T11:36:04;98420.50;;;2.85;93.49
48926;BME280;39838;59.938;30.642;2024-03-23T11:38:36;98423.06;;;2.86;92.80
48926;BME280;39838;59.938;30.642;2024-03-23T11:41:03;98441.88;;;2.87;92.83
48926;BME280;39838;59.938;30.642;2024-03-23T11:43:31;98432.47;;;2.92;93.09
48926;BME280;39838;59.938;30.642;2024-03-23T11:45:58;98445.28;;;2.93;92.84
48926;BME280;39838;59.938;30.642;2024-03-23T11:48:28;98441.84;;;2.96;92.67
48926;BME280;39838;59.938;30.642;2024-03-23T11:50:57;98442.69;;;2.98;92.12
48926;BME280;39838;59.938;30.642;2024-03-23T11:53:25;98441.84;;;3.02;92.11
48926;BME280;39838;59.938;30.642;2024-03-23T11:55:55;98436.69;;;3.02;91.71
48926;BME280;39838;59.938;30.642;2024-03-23T11:58:24;98443.53;;;3.03;92.33
48926;BME280;39838;59.938;30.642;2024-03-23T12:00:51;98443.56;;;3.00;91.92
48926;BME280;39838;59.938;30.642;2024-03-23T12:03:20;98433.28;;;3.00;91.81
48926;BME280;39838;59.938;30.642;2024-03-23T12:05:52;98451.28;;;2.92;91.97
48926;BME280;39838;59.938;30.642;2024-03-23T12:08:24;98446.13;;;2.92;91.99
48926;BME280;39838;59.938;30.642;2024-03-23T12:10:51;98451.28;;;2.86;92.06
48926;BME280;39838;59.938;30.642;2024-03-23T12:13:20;98451.28;;;2.83;91.63
48926;BME280;39838;59.938;30.642;2024-03-23T12:15:47;98462.38;;;2.82;91.53
48926;BME280;39838;59.938;30.642;2024-03-23T12:18:14;98462.38;;;2.82;92.02
48926;BME280;39838;59.938;30.642;2024-03-23T12:20:42;98465.81;;;2.87;92.29
48926;BME280;39838;59.938;30.642;2024-03-23T12:23:10;98451.28;;;2.88;92.14
48926;BME280;39838;59.938;30.642;2024-03-23T12:25:38;98428.19;;;2.83;91.94
48926;BME280;39838;59.938;30.642;2024-03-23T12:28:06;98466.69;;;2.80;91.65
48926;BME280;39838;59.938;30.642;2024-03-23T12:30:35;98467.50;;;2.78;91.70
48926;BME280;39838;59.938;30.642;2024-03-23T12:33:03;98478.66;;;2.80;91.75
48926;BME280;39838;59.938;30.642;2024-03-23T12:35:30;98473.53;;;2.80;91.89
48926;BME280;39838;59.938;30.642;2024-03-23T12:37:59;98476.06;;;2.83;92.18
48926;BME280;39838;59.938;30.642;2024-03-23T12:40:25;98486.31;;;2.87;91.90
48926;BME280;39838;59.938;30.642;2024-03-23T12:42:53;98475.19;;;2.90;91.60
48926;BME280;39838;59.938;30.642;2024-03-23T12:45:19;98476.06;;;2.92;91.88
48926;BME280;39838;59.938;30.642;2024-03-23T12:47:46;98480.31;;;2.97;91.36
48926;BME280;39838;59.938;30.642;2024-03-23T12:50:13;98482.03;;;2.97;91.18
48926;BME280;39838;59.938;30.642;2024-03-23T12:52:40;98483.75;;;2.95;90.65
48926;BME280;39838;59.938;30.642;2024-03-23T12:55:08;98490.56;;;2.97;90.44
48926;BME280;39838;59.938;30.642;2024-03-23T12:57:36;98487.16;;;2.95;90.34
48926;BME280;39838;59.938;30.642;2024-03-23T13:00:03;98488.88;;;2.99;89.80
48926;BME280;39838;59.938;30.642;2024-03-23T13:02:32;98484.59;;;3.06;89.41
48926;BME280;39838;59.938;30.642;2024-03-23T13:05:01;98496.56;;;3.13;88.90
48926;BME280;39838;59.938;30.642;2024-03-23T13:07:30;98493.97;;;3.19;88.85
48926;BME280;39838;59.938;30.642;2024-03-23T13:09:56;98503.38;;;3.22;88.37
48926;BME280;39838;59.938;30.642;2024-03-23T13:12:25;98503.38;;;3.16;88.58
48926;BME280;39838;59.938;30.642;2024-03-23T13:14:51;98508.50;;;3.17;88.37
48926;BME280;39838;59.938;30.642;2024-03-23T13:17:18;98504.25;;;3.12;87.78
48926;BME280;39838;59.938;30.642;2024-03-23T13:19:44;98505.97;;;3.07;87.48
48926;BME280;39838;59.938;30.642;2024-03-23T13:22:12;98513.66;;;3.07;87.51
48926;BME280;39838;59.938;30.642;2024-03-23T13:24:38;98506.81;;;3.01;87.65
48926;BME280;39838;59.938;30.642;2024-03-23T13:27:05;98513.69;;;2.99;87.25
48926;BME280;39838;59.938;30.642;2024-03-23T13:29:35;98506.81;;;2.96;87.08
48926;BME280;39838;59.938;30.642;2024-03-23T13:32:03;98520.53;;;2.94;86.90
48926;BME280;39838;59.938;30.642;2024-03-23T13:34:30;98523.09;;;2.98;87.03
48926;BME280;39838;59.938;30.642;2024-03-23T13:36:59;98515.38;;;3.00;86.57
48926;BME280;39838;59.938;30.642;2024-03-23T13:39:26;98519.66;;;2.96;86.30
48926;BME280;39838;59.938;30.642;2024-03-23T13:41:54;98516.22;;;2.96;86.53
48926;BME280;39838;59.938;30.642;2024-03-23T13:44:21;98525.66;;;2.94;86.35
48926;BME280;39838;59.938;30.642;2024-03-23T13:46:50;98532.50;;;2.89;86.47
48926;BME280;39838;59.938;30.642;2024-03-23T13:49:26;98520.50;;;2.89;86.35
48926;BME280;39838;59.938;30.642;2024-03-23T13:51:55;98513.69;;;2.87;86.32
48926;BME280;39838;59.938;30.642;2024-03-23T13:54:21;98527.38;;;2.93;86.55